Time;durP1;ratioP1;P1;durP2;ratioP2;P2;SDS_P1;SDS_P2;PMS_P1;PMS_P2;Temp;Humidity;BMP_temperature;BMP_pressure;BME280_temperature;BME280_humidity;BME280_pressure;Samples;Min_cycle;Max_cycle;Signal;HPM_P1;HPM_P2
2022/07/23 00:00:21;;;;;;;10.90;8.90;;;20.90;99.90;22.00;96943.00;;;;5067583;28;20215;-83
2022/07/23 00:03:10;;;;;;;9.70;8.80;;;20.80;99.90;22.10;96935.00;;;;5066127;28;20215;-83
2022/07/23 00:05:59;;;;;;;9.53;8.53;;;20.70;99.90;21.80;96933.00;;;;5073961;28;20199;-83
2022/07/23 00:08:48;;;;;;;9.13;8.23;;;20.70;99.90;21.70;96931.00;;;;5074357;28;20192;-84
2022/07/23 00:11:36;;;;;;;11.37;8.83;;;20.60;99.90;21.80;96925.00;;;;5072841;28;20200;-84
2022/07/23 00:14:25;;;;;;;10.30;9.20;;;20.50;99.90;21.80;96918.00;;;;5066999;28;20204;-83
2022/07/23 00:17:15;;;;;;;9.87;8.90;;;20.50;99.90;21.80;96913.00;;;;5069431;28;20207;-84
2022/07/23 00:20:05;;;;;;;9.80;8.97;;;20.50;99.90;21.30;96917.00;;;;5067926;28;20321;-86
2022/07/23 00:22:56;;;;;;;12.40;8.97;;;20.40;99.90;21.30;96920.00;;;;5072248;28;20207;-82
2022/07/23 00:25:45;;;;;;;10.80;8.40;;;20.30;99.90;21.60;96926.00;;;;5072016;28;20215;-85
2022/07/23 00:28:34;;;;;;;10.47;9.60;;;20.30;99.90;21.70;96918.00;;;;5067870;28;20223;-86
2022/07/23 00:31:23;;;;;;;10.57;8.53;;;20.30;99.90;21.80;96923.00;;;;5068678;28;20193;-84
2022/07/23 00:34:13;;;;;;;11.07;8.90;;;20.30;99.90;22.10;96921.00;;;;5072532;28;20215;-86
2022/07/23 00:37:02;;;;;;;9.07;8.23;;;20.30;99.90;22.30;96928.00;;;;5072109;28;20711;-84
2022/07/23 00:39:50;;;;;;;12.70;9.80;;;20.40;99.90;22.10;96929.00;;;;5066926;28;20231;-83
2022/07/23 00:42:39;;;;;;;9.40;8.50;;;20.50;99.90;21.50;96929.00;;;;5063985;28;20212;-85
2022/07/23 00:45:29;;;;;;;10.13;9.13;;;20.50;99.90;21.50;96927.00;;;;5068798;28;20196;-84
2022/07/23 00:48:18;;;;;;;9.50;8.60;;;20.30;99.90;21.90;96928.00;;;;5071396;28;20216;-84
2022/07/23 00:51:08;;;;;;;8.57;7.77;;;20.30;99.90;22.10;96939.00;;;;5071179;28;20207;-83
2022/07/23 00:53:57;;;;;;;10.03;9.03;;;20.40;99.90;22.20;96949.00;;;;5070447;28;20714;-85
2022/07/23 00:56:48;;;;;;;8.83;7.97;;;20.50;99.90;22.10;96935.00;;;;5066020;28;20218;-84
2022/07/23 00:59:36;;;;;;;12.03;8.40;;;20.50;99.90;21.70;96932.00;;;;5071631;28;20231;-85
2022/07/23 01:02:25;;;;;;;10.53;8.47;;;20.50;99.90;22.10;96931.00;;;;5073260;28;20219;-83
2022/07/23 01:05:14;;;;;;;9.80;8.80;;;20.50;99.90;22.00;96935.00;;;;5069254;28;20213;-84
2022/07/23 01:08:06;;;;;;;9.33;8.03;;;20.60;99.90;21.70;96932.00;;;;5074770;28;20227;-84
2022/07/23 01:10:55;;;;;;;9.40;8.50;;;20.50;99.90;21.40;96929.00;;;;5074658;28;20240;-85
2022/07/23 01:13:44;;;;;;;10.13;9.10;;;20.40;99.90;21.50;96920.00;;;;5073856;28;20226;-84
2022/07/23 01:16:33;;;;;;;9.87;8.87;;;20.30;99.90;21.90;96916.00;;;;5075197;28;20207;-85
2022/07/23 01:19:22;;;;;;;8.70;7.83;;;20.30;99.90;21.80;96912.00;;;;5077859;28;20329;-87
2022/07/23 01:22:12;;;;;;;10.77;9.77;;;20.40;99.90;21.60;96919.00;;;;5075822;28;20204;-86
2022/07/23 01:25:02;;;;;;;8.53;7.80;;;20.30;99.90;21.70;96906.00;;;;5074597;28;20609;-84
2022/07/23 01:27:52;;;;;;;9.97;8.90;;;20.30;99.90;21.50;96910.00;;;;5067104;28;20227;-84
2022/07/23 01:30:40;;;;;;;10.33;8.80;;;20.20;99.90;21.40;96906.00;;;;5074649;28;20228;-83
2022/07/23 01:33:30;;;;;;;10.30;9.30;;;20.20;99.90;21.50;96909.00;;;;5070792;28;20592;-83
2022/07/23 01:36:18;;;;;;;10.50;9.50;;;20.20;99.90;20.90;96907.00;;;;5087880;28;20180;-85
2022/07/23 01:39:08;;;;;;;11.77;8.87;;;20.00;99.90;20.60;96907.00;;;;5092822;28;20192;-83
2022/07/23 01:41:58;;;;;;;9.70;8.77;;;19.80;99.90;21.00;96905.00;;;;5090873;28;20211;-85
2022/07/23 01:44:47;;;;;;;10.23;8.57;;;19.70;99.90;21.20;96896.00;;;;5078104;28;20200;-84
2022/07/23 01:47:36;;;;;;;10.37;9.37;;;19.70;99.90;21.50;96893.00;;;;5073253;28;20223;-84
2022/07/23 01:50:24;;;;;;;11.00;9.40;;;19.70;99.90;20.80;96901.00;;;;5072814;28;21012;-84
2022/07/23 01:53:13;;;;;;;11.23;7.83;;;19.70;99.90;20.60;96895.00;;;;5070937;28;20196;-84
2022/07/23 01:56:03;;;;;;;11.07;9.50;;;19.70;99.90;20.80;96898.00;;;;5079003;28;20215;-87
2022/07/23 01:58:53;;;;;;;12.47;9.10;;;19.60;99.90;21.30;96902.00;;;;5077315;28;20208;-85
2022/07/23 02:01:42;;;;;;;9.30;8.40;;;19.60;99.90;21.50;96896.00;;;;5077176;28;20203;-86
2022/07/23 02:04:31;;;;;;;11.77;8.60;;;19.70;99.90;21.40;96894.00;;;;5076106;28;20204;-84
2022/07/23 02:07:20;;;;;;;9.50;8.60;;;19.80;99.90;21.20;96897.00;;;;5076397;28;20207;-84
2022/07/23 02:10:09;;;;;;;10.73;9.40;;;19.90;99.90;20.70;96896.00;;;;5077722;28;20231;-85
2022/07/23 02:12:58;;;;;;;10.87;9.77;;;19.80;99.90;21.10;96897.00;;;;5071104;28;20211;-86
2022/07/23 02:15:49;;;;;;;9.97;9.07;;;19.70;99.90;20.90;96901.00;;;;5073732;28;20196;-85
2022/07/23 02:18:38;;;;;;;11.77;10.40;;;19.70;99.90;20.90;96893.00;;;;5077394;28;20753;-83
2022/07/23 02:21:26;;;;;;;10.30;9.27;;;19.60;99.90;20.80;96888.00;;;;5077123;28;20192;-85
2022/07/23 02:24:15;;;;;;;9.83;8.87;;;19.60;99.90;20.70;96890.00;;;;5077375;28;20692;-86
2022/07/23 02:27:04;;;;;;;11.83;8.73;;;19.50;99.90;20.70;96893.00;;;;5077231;28;20184;-85
2022/07/23 02:29:53;;;;;;;10.70;9.80;;;19.50;99.90;21.00;96892.00;;;;5075811;28;20224;-86
2022/07/23 02:32:43;;;;;;;11.23;10.23;;;19.50;99.90;20.80;96894.00;;;;5070604;28;20212;-84
2022/07/23 02:35:32;;;;;;;11.67;10.03;;;19.50;99.90;20.80;96880.00;;;;5074940;28;20581;-86
2022/07/23 02:38:21;;;;;;;10.83;9.73;;;19.50;99.90;20.50;96891.00;;;;5070712;28;20584;-84
2022/07/23 02:41:10;;;;;;;10.37;9.33;;;19.40;99.90;20.50;96888.00;;;;5076362;28;20219;-86
2022/07/23 02:43:58;;;;;;;11.10;10.00;;;19.40;99.90;20.30;96878.00;;;;5076789;28;20200;-82
2022/07/23 02:46:47;;;;;;;10.67;9.43;;;19.40;99.90;20.40;96879.00;;;;5077312;28;20616;-86
2022/07/23 02:49:37;;;;;;;16.20;10.27;;;19.30;99.90;20.80;96888.00;;;;5072981;28;20243;-84
2022/07/23 02:52:26;;;;;;;12.47;9.97;;;19.30;99.90;20.80;96878.00;;;;5072680;28;20195;-86
2022/07/23 02:55:15;;;;;;;9.87;8.70;;;19.30;99.90;20.50;96886.00;;;;5074615;28;20683;-84
2022/07/23 02:58:04;;;;;;;13.57;9.57;;;19.30;99.90;20.20;96876.00;;;;5075524;28;20222;-83
2022/07/23 03:00:53;;;;;;;10.00;8.97;;;19.20;99.90;20.20;96876.00;;;;5070423;28;20726;-83
2022/07/23 03:03:42;;;;;;;10.73;9.80;;;19.20;99.90;20.40;96876.00;;;;5074065;28;20663;-84
2022/07/23 03:06:32;;;;;;;14.97;10.77;;;19.20;99.90;20.70;96864.00;;;;5073274;28;20200;-87
2022/07/23 03:09:21;;;;;;;10.50;9.53;;;19.20;99.90;20.90;96862.00;;;;5071400;28;20228;-85
2022/07/23 03:12:10;;;;;;;11.17;9.57;;;19.30;99.90;20.80;96861.00;;;;5073459;28;20207;-84
2022/07/23 03:15:01;;;;;;;10.97;9.87;;;19.30;99.90;20.50;96869.00;;;;5067438;28;20792;-84
2022/07/23 03:17:49;;;;;;;11.87;10.67;;;19.30;99.90;20.00;96868.00;;;;5074853;28;20200;-84
2022/07/23 03:20:38;;;;;;;18.87;10.43;;;19.20;99.90;19.90;96858.00;;;;5074512;28;20224;-85
2022/07/23 03:23:28;;;;;;;12.50;10.40;;;19.00;99.90;20.00;96862.00;;;;5065488;28;20203;-85
2022/07/23 03:26:17;;;;;;;11.40;10.30;;;18.90;99.90;20.10;96856.00;;;;5072023;28;20195;-84
2022/07/23 03:29:06;;;;;;;14.10;10.67;;;18.90;99.90;19.90;96864.00;;;;5072658;28;20224;-84
2022/07/23 03:31:54;;;;;;;11.63;10.43;;;18.80;99.90;20.00;96858.00;;;;5073465;28;20199;-86
2022/07/23 03:34:43;;;;;;;9.93;8.93;;;18.80;99.90;19.60;96864.00;;;;5073131;28;20200;-84
2022/07/23 03:37:32;;;;;;;13.80;10.47;;;18.70;99.90;19.80;96865.00;;;;5069607;28;20204;-83
2022/07/23 03:40:22;;;;;;;10.87;9.87;;;18.70;99.90;19.70;96862.00;;;;5072488;28;20235;-84
2022/07/23 03:43:11;;;;;;;11.47;10.37;;;18.60;99.90;19.50;96864.00;;;;5065624;28;20222;-83
2022/07/23 03:46:00;;;;;;;10.80;9.70;;;18.50;99.90;19.00;96865.00;;;;5073227;28;20201;-83
2022/07/23 03:48:48;;;;;;;11.83;9.97;;;18.40;99.90;19.30;96866.00;;;;5072337;28;20228;-83
2022/07/23 03:51:38;;;;;;;11.60;10.50;;;18.30;99.90;19.20;96872.00;;;;5072616;28;20207;-85
2022/07/23 03:54:27;;;;;;;12.30;10.80;;;18.30;99.90;19.80;96876.00;;;;5071430;28;20192;-85
2022/07/23 03:57:17;;;;;;;11.73;9.13;;;18.30;99.90;20.10;96882.00;;;;5070455;28;20207;-86
2022/07/23 04:00:09;;;;;;;11.77;10.67;;;18.40;99.90;20.00;96890.00;;;;5067310;28;20234;-86
2022/07/23 04:02:58;;;;;;;10.83;9.73;;;18.40;99.90;19.70;96894.00;;;;5070312;28;20207;-85
2022/07/23 04:05:47;;;;;;;13.33;12.03;;;18.50;99.90;19.80;96895.00;;;;5072738;28;20215;-84
2022/07/23 04:08:35;;;;;;;12.17;11.00;;;18.50;99.90;19.90;96904.00;;;;5072509;28;20227;-86
2022/07/23 04:11:24;;;;;;;10.57;9.57;;;18.40;99.90;19.80;96894.00;;;;5074755;28;20279;-85
2022/07/23 04:14:14;;;;;;;14.37;10.70;;;18.50;99.90;20.10;96884.00;;;;5074577;28;20200;-85
2022/07/23 04:17:03;;;;;;;10.93;9.83;;;18.50;99.90;20.10;96891.00;;;;5076444;28;20618;-85
2022/07/23 04:19:52;;;;;;;12.83;11.43;;;18.60;99.90;19.70;96888.00;;;;5078081;28;20215;-83
2022/07/23 04:22:40;;;;;;;13.57;11.30;;;18.60;99.90;19.60;96892.00;;;;5076210;28;20200;-86
2022/07/23 04:25:29;;;;;;;11.10;10.00;;;18.50;99.90;19.40;96889.00;;;;5075704;28;20207;-84
2022/07/23 04:28:18;;;;;;;11.47;10.47;;;18.50;99.90;19.40;96885.00;;;;5075707;28;20200;-85
2022/07/23 04:31:08;;;;;;;11.53;10.50;;;18.40;99.90;19.10;96890.00;;;;5063379;28;20242;-84
2022/07/23 04:33:57;;;;;;;13.13;11.73;;;18.30;99.90;19.50;96881.00;;;;5075600;28;20204;-84
2022/07/23 04:36:46;;;;;;;14.53;13.07;;;18.30;99.90;20.10;96879.00;;;;5075507;28;20683;-84
2022/07/23 04:39:35;;;;;;;13.87;12.47;;;18.30;99.90;20.50;96879.00;;;;5074794;28;20228;-84
2022/07/23 04:42:23;;;;;;;12.17;10.93;;;18.50;99.90;20.70;96872.00;;;;5074992;28;20675;-86
2022/07/23 04:45:12;;;;;;;14.53;11.47;;;18.70;99.90;20.70;96873.00;;;;5074411;28;20672;-86
2022/07/23 04:48:03;;;;;;;11.80;10.57;;;18.90;99.90;20.40;96871.00;;;;5074644;28;20354;-86
2022/07/23 04:50:51;;;;;;;15.10;11.60;;;18.90;99.90;20.10;96873.00;;;;5074268;28;20243;-84
2022/07/23 04:53:40;;;;;;;12.87;11.67;;;19.00;99.90;20.20;96873.00;;;;5074399;28;20196;-84
2022/07/23 04:56:29;;;;;;;12.37;11.10;;;19.00;99.90;20.70;96877.00;;;;5066391;28;20203;-84
2022/07/23 04:59:18;;;;;;;12.30;10.37;;;19.10;99.90;20.90;96877.00;;;;5074917;28;20224;-84
2022/07/23 05:02:06;;;;;;;12.83;11.43;;;19.20;99.90;20.80;96874.00;;;;5074688;28;20219;-84
2022/07/23 05:04:56;;;;;;;12.33;11.03;;;19.40;99.90;20.80;96877.00;;;;5063182;28;20211;-84
2022/07/23 05:07:45;;;;;;;14.20;11.80;;;19.50;99.90;21.10;96871.00;;;;5073814;28;20593;-85
2022/07/23 05:10:34;;;;;;;12.77;11.57;;;19.60;99.90;20.80;96875.00;;;;5073998;28;20233;-86
2022/07/23 05:13:23;;;;;;;12.33;11.13;;;19.70;99.90;20.80;96873.00;;;;5073267;28;20196;-84
2022/07/23 05:16:12;;;;;;;11.67;10.60;;;19.70;99.90;21.10;96871.00;;;;5074020;28;20208;-83
2022/07/23 05:19:00;;;;;;;11.27;10.27;;;19.70;99.90;21.40;96869.00;;;;5073410;28;20210;-85
2022/07/23 05:21:51;;;;;;;11.97;10.60;;;19.80;99.90;21.60;96870.00;;;;5068068;28;20203;-85
2022/07/23 05:24:39;;;;;;;12.67;10.03;;;20.00;99.90;21.90;96869.00;;;;5074194;28;20207;-84
2022/07/23 05:27:29;;;;;;;10.93;9.93;;;20.20;99.90;22.10;96871.00;;;;5069164;28;20225;-85
2022/07/23 05:30:18;;;;;;;11.97;10.87;;;20.40;99.90;22.30;96864.00;;;;5070487;28;20224;-84
2022/07/23 05:33:07;;;;;;;12.00;10.90;;;20.60;99.90;22.70;96861.00;;;;5075835;28;20567;-85
2022/07/23 05:36:02;;;;;;;11.37;10.17;;;20.80;99.90;22.90;96864.00;;;;5078479;28;20210;-85
2022/07/23 05:38:52;;;;;;;11.97;10.73;;;21.00;99.90;22.90;96864.00;;;;5062304;28;20196;-85
2022/07/23 05:41:41;;;;;;;12.10;10.97;;;21.20;99.90;22.80;96864.00;;;;5084142;28;20223;-86
2022/07/23 05:44:30;;;;;;;11.63;10.37;;;21.40;99.90;22.70;96860.00;;;;5076503;28;20581;-85
2022/07/23 05:47:21;;;;;;;11.97;10.73;;;21.40;99.90;22.80;96858.00;;;;5071828;28;20200;-86
2022/07/23 05:50:12;;;;;;;15.57;11.27;;;21.50;99.90;22.70;96857.00;;;;5074333;28;20226;-83
2022/07/23 05:53:01;;;;;;;15.00;13.47;;;21.50;99.90;22.80;96858.00;;;;5074754;28;20580;-85
2022/07/23 05:55:51;;;;;;;12.37;10.40;;;21.60;99.90;23.00;96860.00;;;;5071677;28;20897;-86
2022/07/23 05:58:40;;;;;;;11.57;10.50;;;21.70;99.90;23.10;96854.00;;;;5065682;28;20206;-85
2022/07/23 06:01:28;;;;;;;11.77;10.67;;;21.80;99.90;23.40;96850.00;;;;5068791;28;20204;-86
2022/07/23 06:04:17;;;;;;;11.53;10.53;;;21.80;99.90;23.60;96855.00;;;;5073446;28;20208;-84
2022/07/23 06:07:06;;;;;;;12.60;11.40;;;21.90;99.90;23.40;96853.00;;;;5084953;28;20195;-84
2022/07/23 06:09:55;;;;;;;13.43;12.17;;;22.10;99.90;23.80;96855.00;;;;5095011;28;20238;-85
2022/07/23 06:12:45;;;;;;;13.97;12.63;;;22.20;99.90;24.10;96859.00;;;;5088125;28;20659;-87
2022/07/23 06:15:34;;;;;;;14.13;12.80;;;22.40;99.90;24.20;96854.00;;;;5071872;28;20204;-86
2022/07/23 06:18:22;;;;;;;13.07;11.73;;;22.60;99.90;24.60;96863.00;;;;5077965;28;20208;-86
2022/07/23 06:21:11;;;;;;;13.17;10.87;;;22.80;99.90;24.80;96861.00;;;;5080378;28;20228;-86
2022/07/23 06:24:10;;;;;;;35.63;15.47;;;23.00;99.90;25.10;96864.00;;;;5070806;28;20582;-86
2022/07/23 06:26:59;;;;;;;13.33;11.93;;;23.20;99.90;25.30;96869.00;;;;5073774;28;20207;-86
2022/07/23 06:29:49;;;;;;;14.03;11.03;;;23.40;99.90;25.40;96868.00;;;;5075978;28;20228;-86
2022/07/23 06:32:38;;;;;;;12.67;11.33;;;23.60;99.90;25.70;96869.00;;;;5078727;28;20200;-86
2022/07/23 06:35:27;;;;;;;13.40;12.20;;;23.80;99.90;26.00;96867.00;;;;5078244;28;20215;-85
2022/07/23 06:38:15;;;;;;;12.50;11.30;;;24.00;99.90;26.10;96862.00;;;;5078021;28;20207;-86
2022/07/23 06:41:04;;;;;;;11.93;10.83;;;24.20;99.90;26.70;96857.00;;;;5078231;28;20228;-86
2022/07/23 06:43:53;;;;;;;12.10;10.90;;;24.40;99.90;26.60;96855.00;;;;5076999;28;20206;-84
2022/07/23 06:46:43;;;;;;;11.43;10.27;;;24.60;99.90;26.90;96865.00;;;;5076651;28;20225;-86
2022/07/23 06:49:32;;;;;;;11.10;10.10;;;24.90;99.90;27.70;96862.00;;;;5075406;28;20227;-85
2022/07/23 06:52:21;;;;;;;10.93;9.77;;;25.20;99.90;28.20;96855.00;;;;5074469;28;20200;-86
2022/07/23 06:55:10;;;;;;;10.83;9.73;;;25.60;99.90;28.50;96860.00;;;;5072999;28;20209;-84
2022/07/23 06:57:59;;;;;;;8.77;8.00;;;25.90;99.90;28.90;96864.00;;;;5072634;28;20202;-84
2022/07/23 07:00:48;;;;;;;10.07;9.07;;;26.30;99.90;29.10;96860.00;;;;5071017;28;20229;-87
2022/07/23 07:03:38;;;;;;;9.60;8.57;;;26.60;99.90;29.00;96872.00;;;;5075378;28;20204;-87
2022/07/23 07:06:27;;;;;;;9.90;8.90;;;26.80;99.90;28.90;96881.00;;;;5075031;28;20193;-86
2022/07/23 07:09:16;;;;;;;12.40;8.80;;;26.90;99.90;29.10;96883.00;;;;5074391;28;20241;-87
2022/07/23 07:12:05;;;;;;;9.23;8.43;;;27.00;99.90;28.70;96885.00;;;;5075429;28;20254;-86
2022/07/23 07:14:54;;;;;;;9.50;8.43;;;27.10;99.90;29.00;96888.00;;;;5068070;28;20602;-87
2022/07/23 07:17:43;;;;;;;9.13;8.20;;;27.10;99.90;28.90;96889.00;;;;5070511;28;20201;-86
2022/07/23 07:20:36;;;;;;;9.30;8.50;;;27.10;99.90;29.00;96888.00;;;;5075737;28;20232;-86
2022/07/23 07:23:25;;;;;;;9.23;8.43;;;26.70;99.90;29.30;96888.00;;;;5073983;28;20595;-84
2022/07/23 07:26:13;;;;;;;8.57;7.67;;;27.10;99.90;29.00;96893.00;;;;5073395;28;20210;-86
2022/07/23 07:29:03;;;;;;;10.60;9.33;;;27.10;99.90;28.90;96885.00;;;;5064726;28;20210;-86
2022/07/23 07:31:52;;;;;;;9.63;8.73;;;27.10;99.90;29.10;96887.00;;;;5072877;28;20217;-85
2022/07/23 07:34:41;;;;;;;9.10;8.23;;;27.10;99.90;29.30;96885.00;;;;5066743;28;20588;-85
2022/07/23 07:37:31;;;;;;;8.03;7.37;;;27.30;99.90;30.00;96886.00;;;;5072865;28;20206;-87
2022/07/23 07:40:20;;;;;;;9.17;8.37;;;27.50;99.90;30.50;96883.00;;;;5069778;28;20232;-84
2022/07/23 07:43:09;;;;;;;7.37;6.67;;;27.80;99.30;30.30;96876.00;;;;5066635;28;20580;-83
2022/07/23 07:45:58;;;;;;;17.73;8.47;;;28.00;96.60;30.90;96887.00;;;;5066597;28;20208;-86
2022/07/23 07:48:47;;;;;;;8.73;7.93;;;28.20;96.80;30.70;96881.00;;;;5068532;28;20294;-85
2022/07/23 07:51:38;;;;;;;8.57;7.60;;;28.40;96.40;30.90;96887.00;;;;5071708;28;20236;-86
2022/07/23 07:54:28;;;;;;;7.50;6.90;;;28.60;96.40;30.90;96887.00;;;;5077668;28;20800;-86
2022/07/23 07:57:17;;;;;;;7.60;7.00;;;28.70;95.60;31.30;96884.00;;;;5075202;28;20207;-86
2022/07/23 08:00:08;;;;;;;6.93;6.33;;;28.80;95.10;31.40;96893.00;;;;5073550;28;20215;-86
2022/07/23 08:02:57;;;;;;;7.90;6.77;;;29.00;93.30;31.70;96881.00;;;;5069150;28;20249;-85
2022/07/23 08:05:46;;;;;;;9.37;8.07;;;29.20;93.40;32.10;96891.00;;;;5075026;28;20580;-86
2022/07/23 08:08:35;;;;;;;6.50;6.00;;;29.40;93.00;32.10;96888.00;;;;5074971;28;20206;-84
2022/07/23 08:11:25;;;;;;;8.33;6.07;;;29.60;92.30;32.30;96898.00;;;;5073482;28;20221;-84
2022/07/23 08:14:14;;;;;;;6.67;6.13;;;29.70;91.30;32.40;96893.00;;;;5074914;28;20203;-86
2022/07/23 08:17:03;;;;;;;6.18;5.68;;;29.90;89.00;32.70;96892.00;;;;5075016;28;20202;-84
2022/07/23 08:20:00;;;;;;;6.13;5.45;;;30.10;88.60;32.50;96893.00;;;;5074324;28;20230;-85
2022/07/23 08:22:52;;;;;;;6.88;6.18;;;30.20;87.20;32.60;96896.00;;;;5073151;28;20214;-85
2022/07/23 08:25:43;;;;;;;6.45;5.95;;;30.30;87.00;32.10;96895.00;;;;5068600;28;20203;-85
2022/07/23 08:28:33;;;;;;;5.43;4.93;;;30.40;82.60;32.60;96891.00;;;;5074073;28;20229;-85
2022/07/23 08:31:22;;;;;;;6.28;5.78;;;30.30;82.50;32.80;96895.00;;;;5072835;28;20303;-88
2022/07/23 08:34:11;;;;;;;4.90;4.40;;;30.40;82.20;32.80;96898.00;;;;5069199;28;20206;-85
2022/07/23 08:37:00;;;;;;;6.80;5.38;;;30.50;80.90;32.90;96901.00;;;;5067913;28;20795;-86
2022/07/23 08:39:49;;;;;;;5.70;4.82;;;30.60;79.70;32.90;96906.00;;;;5054228;28;20234;-87
2022/07/23 08:42:39;;;;;;;5.63;5.13;;;30.80;77.70;32.90;96898.00;;;;5055068;28;20211;-86
2022/07/23 08:45:29;;;;;;;4.80;4.40;;;30.70;78.40;32.80;96905.00;;;;5054852;28;20210;-85
2022/07/23 08:48:20;;;;;;;4.57;4.28;;;30.60;75.40;32.40;96902.00;;;;5052925;28;20219;-86
2022/07/23 08:51:10;;;;;;;5.15;4.65;;;30.50;74.70;32.30;96894.00;;;;5052230;28;20728;-86
2022/07/23 08:53:59;;;;;;;4.88;4.38;;;30.50;74.40;32.60;96886.00;;;;5052335;28;20644;-85
2022/07/23 08:56:49;;;;;;;4.75;4.35;;;30.50;76.00;32.60;96884.00;;;;5049068;28;20345;-84
2022/07/23 08:59:38;;;;;;;4.43;4.03;;;30.50;74.80;32.70;96897.00;;;;5049843;28;20230;-84
2022/07/23 09:02:28;;;;;;;5.28;4.78;;;30.60;75.90;32.90;96909.00;;;;5050444;28;20214;-84
2022/07/23 09:05:17;;;;;;;5.22;4.72;;;30.50;74.60;32.40;96913.00;;;;5051785;28;20217;-83
2022/07/23 09:08:15;;;;;;;4.75;4.28;;;30.60;74.20;32.30;96918.00;;;;5048024;28;20205;-86
2022/07/23 09:11:08;;;;;;;5.05;4.63;;;30.50;73.60;32.20;96915.00;;;;5052280;28;20265;-84
2022/07/23 09:14:01;;;;;;;5.35;4.95;;;30.40;72.20;32.40;96906.00;;;;5053860;28;20330;-85
2022/07/23 09:16:50;;;;;;;4.38;3.97;;;30.40;72.80;32.80;96896.00;;;;5050482;28;20624;-84
2022/07/23 09:19:40;;;;;;;4.68;4.28;;;30.40;73.70;32.60;96898.00;;;;5048626;28;20229;-84
2022/07/23 09:22:29;;;;;;;4.07;3.75;;;30.40;73.00;32.70;96895.00;;;;5050308;28;20777;-84
2022/07/23 09:25:20;;;;;;;7.00;4.50;;;30.50;73.90;32.70;96902.00;;;;5048121;28;22026;-84
2022/07/23 09:28:09;;;;;;;4.93;4.47;;;30.50;73.60;32.40;96906.00;;;;5048180;28;20214;-85
2022/07/23 09:30:57;;;;;;;4.40;4.00;;;30.40;73.80;32.20;96913.00;;;;5046646;28;20223;-85
2022/07/23 09:33:46;;;;;;;4.05;3.75;;;30.40;71.90;32.10;96916.00;;;;5049440;28;20208;-84
2022/07/23 09:36:37;;;;;;;4.90;4.50;;;30.30;71.00;32.00;96921.00;;;;5046127;28;20288;-84
2022/07/23 09:39:31;;;;;;;5.10;4.63;;;30.10;71.60;31.80;96931.00;;;;5044115;28;20795;-84
2022/07/23 09:42:23;;;;;;;5.82;5.15;;;30.00;72.20;31.80;96928.00;;;;5046313;28;20582;-84
2022/07/23 09:45:13;;;;;;;4.15;3.75;;;29.90;73.90;31.80;96938.00;;;;5048345;28;20216;-84
2022/07/23 09:48:12;;;;;;;4.18;3.75;;;29.80;75.60;31.70;96941.00;;;;5043470;28;20291;-84
2022/07/23 09:51:04;;;;;;;4.90;4.50;;;29.70;77.10;31.80;96938.00;;;;5047528;28;20227;-83
2022/07/23 09:53:54;;;;;;;5.93;4.43;;;29.70;80.10;31.80;96932.00;;;;5047543;28;20462;-85
2022/07/23 09:56:44;;;;;;;4.82;4.32;;;29.70;82.70;32.10;96929.00;;;;5056043;28;21160;-85
2022/07/23 09:59:35;;;;;;;4.65;4.25;;;29.80;81.60;32.30;96924.00;;;;5056798;28;20224;-85
2022/07/23 10:02:24;;;;;;;4.25;3.92;;;29.90;81.70;31.50;96921.00;;;;5056438;28;21820;-85
2022/07/23 10:05:16;;;;;;;4.38;4.00;;;29.80;77.10;32.10;96882.00;;;;5059457;28;20317;-85
2022/07/23 10:08:08;;;;;;;4.55;4.15;;;30.00;77.10;32.80;96877.00;;;;5052200;28;20203;-85
2022/07/23 10:10:58;;;;;;;4.30;3.90;;;30.10;76.70;32.70;96871.00;;;;5047301;28;20956;-84
2022/07/23 10:13:54;;;;;;;4.55;4.15;;;30.40;76.60;33.70;96860.00;;;;5044323;28;20216;-85
2022/07/23 10:16:43;;;;;;;4.80;3.95;;;30.70;75.50;34.10;96869.00;;;;5041785;28;20205;-83
2022/07/23 10:19:33;;;;;;;5.50;5.00;;;31.10;76.20;34.10;96867.00;;;;5049231;28;21385;-85
2022/07/23 10:22:27;;;;;;;7.40;6.70;;;31.30;75.80;33.80;96871.00;;;;5047009;28;20584;-85
2022/07/23 10:25:27;;;;;;;19.42;17.98;;;31.50;72.80;33.40;96868.00;;;;5047435;28;20196;-85
2022/07/23 10:28:46;;;;;;;14.43;13.23;;;31.50;70.00;33.20;96868.00;;;;5047751;28;20220;-84
2022/07/23 10:31:49;;;;;;;42.92;39.63;;;31.50;68.10;34.50;96863.00;;;;5043643;28;20218;-86
2022/07/23 10:34:53;;;;;;;10.63;9.75;;;31.60;68.30;34.70;96847.00;;;;5050351;28;20209;-84
2022/07/23 10:37:46;;;;;;;4.57;4.18;;;32.00;67.50;35.30;96867.00;;;;5048078;28;20686;-85
2022/07/23 10:40:35;;;;;;;8.00;6.30;;;32.40;65.10;36.00;96876.00;;;;5045664;28;20225;-86
2022/07/23 10:43:27;;;;;;;501.40;397.33;;;32.80;65.50;35.30;96899.00;;;;5062353;28;20682;-85
2022/07/23 10:46:32;;;;;;;474.27;406.00;;;32.90;63.20;35.30;96873.00;;;;5063956;28;20203;-85
2022/07/23 10:49:27;;;;;;;298.02;273.83;;;32.90;63.30;35.30;96859.00;;;;5064980;28;20230;-84
2022/07/23 10:52:33;;;;;;;539.22;489.00;;;33.00;62.40;35.90;96869.00;;;;5067783;28;20231;-86
2022/07/23 10:55:42;;;;;;;243.40;223.77;;;33.20;60.70;35.30;96850.00;;;;5071095;28;20202;-85
2022/07/23 10:59:04;;;;;;;51.67;47.70;;;33.40;59.90;36.30;96832.00;;;;5091424;28;20186;-86
2022/07/23 11:01:53;;;;;;;7.03;6.40;;;33.70;59.60;36.80;96832.00;;;;5082648;28;20207;-87
2022/07/23 11:04:53;;;;;;;6.28;5.68;;;34.10;60.00;37.10;96833.00;;;;5072895;28;20213;-86
2022/07/23 11:08:24;;;;;;;12.93;11.98;;;34.40;58.90;37.60;96829.00;;;;5075876;28;20213;-86
2022/07/23 11:11:14;;;;;;;4.25;3.95;;;34.70;58.20;37.80;96818.00;;;;5074678;28;20230;-86
2022/07/23 11:14:06;;;;;;;4.65;4.20;;;35.10;56.90;37.90;96813.00;;;;5071364;28;20227;-86
2022/07/23 11:16:56;;;;;;;4.13;3.80;;;35.20;55.80;38.50;96819.00;;;;5068029;28;20203;-87
2022/07/23 11:20:21;;;;;;;3.63;3.30;;;35.50;55.20;38.00;96819.00;;;;5070040;28;20219;-86
2022/07/23 11:23:10;;;;;;;3.92;3.63;;;35.80;53.70;38.40;96833.00;;;;5074578;28;20200;-85
2022/07/23 11:25:59;;;;;;;4.97;3.15;;;35.90;54.10;38.00;96808.00;;;;5069260;28;20208;-86
2022/07/23 11:28:48;;;;;;;3.83;3.47;;;35.90;53.20;39.00;96814.00;;;;5075356;28;20210;-87
2022/07/23 11:31:38;;;;;;;3.47;3.17;;;36.10;53.30;39.50;96804.00;;;;5076598;28;20221;-86
2022/07/23 11:34:31;;;;;;;4.00;3.70;;;36.30;54.10;39.40;96784.00;;;;5072008;28;20204;-86
2022/07/23 11:37:38;;;;;;;3.97;3.45;;;36.60;53.10;38.70;96797.00;;;;5065596;28;20207;-86
2022/07/23 11:40:28;;;;;;;3.47;3.20;;;36.70;51.70;38.10;96820.00;;;;5067241;28;20235;-86
2022/07/23 11:43:17;;;;;;;3.13;2.83;;;36.50;50.20;37.70;96804.00;;;;5071326;28;20219;-86
2022/07/23 11:46:06;;;;;;;4.57;3.00;;;36.20;50.70;38.70;96795.00;;;;5068615;28;20211;-86
2022/07/23 11:49:04;;;;;;;3.50;3.20;;;36.30;51.20;37.80;96788.00;;;;5067791;28;20563;-87
2022/07/23 11:52:06;;;;;;;4.32;3.30;;;36.20;49.90;38.30;96789.00;;;;5072969;28;20204;-87
2022/07/23 11:54:57;;;;;;;3.78;3.47;;;36.10;49.00;38.70;96792.00;;;;5073851;28;20208;-86
2022/07/23 11:57:46;;;;;;;6.25;5.75;;;36.20;49.10;38.10;96774.00;;;;5076966;28;20199;-84
2022/07/23 12:00:35;;;;;;;3.30;3.10;;;36.20;49.10;38.50;96791.00;;;;5071547;28;20623;-87
2022/07/23 12:03:28;;;;;;;3.10;2.80;;;36.30;48.60;36.20;96803.00;;;;5078767;28;20207;-85
2022/07/23 12:06:19;;;;;;;3.70;3.42;;;36.10;46.20;37.10;96833.00;;;;5078896;28;20234;-86
2022/07/23 12:09:08;;;;;;;5.20;3.13;;;35.70;47.20;36.10;96830.00;;;;5071467;28;20199;-85
2022/07/23 12:12:01;;;;;;;2.78;2.58;;;35.40;48.10;36.40;96771.00;;;;5071321;28;20675;-84
2022/07/23 12:14:52;;;;;;;3.45;3.25;;;35.00;49.20;37.40;96823.00;;;;5067544;28;20244;-86
2022/07/23 12:17:44;;;;;;;3.60;3.30;;;35.10;48.90;36.80;96765.00;;;;5072910;28;20204;-86
2022/07/23 12:20:42;;;;;;;3.15;2.95;;;35.00;49.40;38.20;96783.00;;;;5069966;28;20233;-87
2022/07/23 12:23:32;;;;;;;2.90;2.70;;;35.20;49.30;38.60;96742.00;;;;5070162;28;20666;-84
2022/07/23 12:26:21;;;;;;;3.55;3.25;;;35.80;49.70;38.40;96816.00;;;;5073070;28;20584;-85
2022/07/23 12:29:10;;;;;;;3.55;2.70;;;36.00;48.60;36.30;96817.00;;;;5072350;28;20192;-84